Home > Products > Valid Products > TAF

000
FTUS46 KSGX 042106 AAB
TAFSAN
TAF AMD
KSAN 042106Z 0421/0524 29013G20KT P6SM BKN026 BKN035
     FM050200 VRB05KT P6SM OVC022
     FM051500 VRB04KT P6SM BKN030
     FM051700 VRB04KT P6SM BKN035
     FM052000 27010KT P6SM SCT035=



000
FTUS46 KSGX 042011 AAA
TAFCRQ
TAF AMD
KCRQ 042011Z 0420/0518 26012KT P6SM BKN030
      TEMPO 0420/0422 BKN017
     FM050000 VRB04KT P6SM BKN020
     FM050700 VRB04KT P6SM OVC015
     FM051400 VRB04KT P6SM OVC022=



000
FTUS46 KSGX 042010 AAA
TAFSAN
TAF AMD
KSAN 042010Z 0420/0524 30011KT P6SM FEW025 SCT035
     FM050000 29009KT P6SM BKN025
     FM050200 VRB05KT P6SM OVC022
     FM051500 VRB04KT P6SM BKN030
     FM051700 VRB04KT P6SM BKN035
     FM052000 27010KT P6SM SCT035=



000
FTUS46 KSGX 041720
TAFTRM
TAF
KTRM 041720Z 0418/0518 VRB06KT P6SM BKN110
     FM041900 14009KT P6SM VCTS BKN100CB
     FM050200 33011KT P6SM SCT110
     FM051700 32006KT P6SM SKC=



000
FTUS46 KSGX 041720
TAFSNA
TAF
KSNA 041720Z 0418/0518 25006KT P6SM SCT025 BKN035
     FM041900 24010KT P6SM SCT035
     FM050200 24006KT P6SM SCT030
     FM050300 VRB04KT P6SM BKN025
     FM050800 VRB04KT P6SM OVC030
     FM051600 VRB04KT P6SM BKN035=



000
FTUS46 KSGX 041720
TAFPSP
TAF
KPSP 041720Z 0418/0518 VRB06KT P6SM SCT110
     FM042200 33011G20KT P6SM VCTS SCT100CB
     FM050300 32011G20KT P6SM SCT100
     FM050700 31006KT P6SM FEW120=



000
FTUS46 KSGX 041720
TAFSAN
TAF
KSAN 041720Z 0418/0524 29011KT P6SM SCT025 BKN035
      TEMPO 0418/0420 BKN025
     FM050000 29009KT P6SM BKN025
     FM050200 VRB05KT P6SM OVC022
     FM051500 VRB04KT P6SM BKN030
     FM051700 VRB04KT P6SM BKN035
     FM052000 27010KT P6SM SCT035=



000
FTUS46 KSGX 041720
TAFSAN
TAF
KSAN 041720Z 0418/0524 29011KT P6SM SCT025 BKN035
      TEMPO 0418/0420 BKN025
     FM050000 29009KT P6SM BKN025
     FM050200 VRB05KT P6SM OVC022
     FM051500 VRB04KT P6SM BKN030
     FM051700 VRB04KT P6SM BKN035
     FM052000 27010KT P6SM SCT035=



000
FTUS46 KSGX 041720
TAFSNA
TAF
KSNA 041720Z 0418/0518 25006KT P6SM SCT025 BKN035
     FM041900 24010KT P6SM SCT035
     FM050200 24006KT P6SM SCT030
     FM050300 VRB04KT P6SM BKN025
     FM050800 VRB04KT P6SM OVC030
     FM051600 VRB04KT P6SM BKN035=



000
FTUS46 KSGX 041720
TAFONT
TAF
KONT 041720Z 0418/0524 26006KT P6SM BKN025
     FM042000 25011G18KT P6SM FEW030 FEW100
     FM050500 26008KT P6SM SCT020
     FM050700 25006KT P6SM BKN020
     FM051800 VRB05KT P6SM SCT030
     FM052000 25011G18KT P6SM FEW030=



000
FTUS46 KSGX 041720
TAFCRQ
TAF
KCRQ 041720Z 0418/0518 VRB04KT P6SM OVC025
     FM041900 26009KT P6SM BKN030
     FM050000 VRB04KT P6SM BKN020
     FM050700 VRB04KT P6SM OVC015
     FM051400 VRB04KT P6SM OVC022=



000
FTUS46 KSGX 041720
TAFTRM
TAF
KTRM 041720Z 0418/0518 VRB06KT P6SM BKN110
     FM041900 14009KT P6SM VCTS BKN100CB
     FM050200 33011KT P6SM SCT110
     FM051700 32006KT P6SM SKC=



000
FTUS46 KSGX 041720
TAFPSP
TAF
KPSP 041720Z 0418/0518 VRB06KT P6SM SCT110
     FM042200 33011G20KT P6SM VCTS SCT100CB
     FM050300 32011G20KT P6SM SCT100
     FM050700 31006KT P6SM FEW120=



000
FTUS46 KSGX 041720
TAFCRQ
TAF
KCRQ 041720Z 0418/0518 VRB04KT P6SM OVC025
     FM041900 26009KT P6SM BKN030
     FM050000 VRB04KT P6SM BKN020
     FM050700 VRB04KT P6SM OVC015
     FM051400 VRB04KT P6SM OVC022=



000
FTUS46 KSGX 041720
TAFONT
TAF
KONT 041720Z 0418/0524 26006KT P6SM BKN025
     FM042000 25011G18KT P6SM FEW030 FEW100
     FM050500 26008KT P6SM SCT020
     FM050700 25006KT P6SM BKN020
     FM051800 VRB05KT P6SM SCT030
     FM052000 25011G18KT P6SM FEW030=



000
FTUS46 KSGX 041429 AAA
TAFONT
TAF AMD
KONT 041429Z 0414/0518 VRB04KT P6SM OVC018
     FM041700 VRB04KT P6SM OVC020
     FM041800 26006KT P6SM SCT025
     FM042000 25011G18KT P6SM FEW100
     FM050400 26006KT P6SM SCT015
     FM050730 VRB04KT P6SM BKN020
     FM051100 VRB05KT P6SM OVC030=



000
FTUS46 KSGX 041425 AAA
TAFCRQ
TAF AMD
KCRQ 041425Z 0414/0512 VRB04KT P6SM OVC025
     FM041900 26009KT P6SM SCT025
     FM050000 VRB04KT P6SM BKN020
     FM050700 VRB04KT P6SM OVC015=



000
FTUS46 KSGX 041424 AAA
TAFSAN
TAF AMD
KSAN 041424Z 0414/0518 VRB05KT P6SM OVC022
     FM041700 VRB04KT P6SM OVC030
     FM041900 29011KT P6SM SCT035
      TEMPO 0419/0420 BKN030
     FM050000 29009KT P6SM BKN025
     FM050200 VRB05KT P6SM OVC022=



000
FTUS46 KSGX 041121
TAFPSP
TAF
KPSP 041121Z 0412/0512 32012KT P6SM FEW120
     FM041400 VRB06KT P6SM SKC
     FM042200 33011G20KT P6SM VCTS FEW100CB
     FM050100 32013G23KT P6SM FEW120
     FM050900 VRB06KT P6SM FEW120=



000
FTUS46 KSGX 041121
TAFTRM
TAF
KTRM 041121Z 0412/0512 33011KT P6SM SCT120
     FM041500 VRB06KT P6SM SCT120
     FM042000 14009KT P6SM VCTS FEW100CB
     FM050400 33012G20KT P6SM SKC=



000
FTUS46 KSGX 041121
TAFCRQ
TAF
KCRQ 041121Z 0412/0512 VRB04KT 5SM BR OVC015
     FM041600 VRB04KT P6SM OVC020
     FM041900 26009KT P6SM SCT025
     FM050000 VRB04KT P6SM BKN020
     FM050700 VRB04KT P6SM OVC015=



000
FTUS46 KSGX 041121
TAFSNA
TAF
KSNA 041121Z 0412/0512 VRB04KT P6SM OVC025
     FM041500 VRB04KT P6SM OVC030
     FM041800 23011KT P6SM SCT030
     FM050200 VRB04KT P6SM BKN020
     FM050800 VRB04KT P6SM OVC030=



000
FTUS46 KSGX 041121
TAFONT
TAF
KONT 041121Z 0412/0518 26006KT P6SM OVC020
     FM041600 VRB04KT P6SM SCT025
     FM042000 25011G18KT P6SM FEW100
     FM050400 26006KT P6SM SCT015
     FM050730 VRB04KT P6SM BKN020
     FM051100 VRB05KT P6SM OVC030=



000
FTUS46 KSGX 041121
TAFSAN
TAF
KSAN 041121Z 0412/0518 VRB05KT P6SM OVC018
     FM041600 VRB04KT P6SM OVC025
     FM041900 29011KT P6SM SCT035
     FM050000 VRB05KT P6SM BKN020
     FM050400 VRB05KT P6SM OVC030=



000
FTUS46 KSGX 041121
TAFCRQ
TAF
KCRQ 041121Z 0412/0512 VRB04KT 5SM BR OVC015
     FM041600 VRB04KT P6SM OVC020
     FM041900 26009KT P6SM SCT025
     FM050000 VRB04KT P6SM BKN020
     FM050700 VRB04KT P6SM OVC015=



000
FTUS46 KSGX 041121
TAFONT
TAF
KONT 041121Z 0412/0518 26006KT P6SM OVC020
     FM041600 VRB04KT P6SM SCT025
     FM042000 25011G18KT P6SM FEW100
     FM050400 26006KT P6SM SCT015
     FM050730 VRB04KT P6SM BKN020
     FM051100 VRB05KT P6SM OVC030=



000
FTUS46 KSGX 041121
TAFPSP
TAF
KPSP 041121Z 0412/0512 32012KT P6SM FEW120
     FM041400 VRB06KT P6SM SKC
     FM042200 33011G20KT P6SM VCTS FEW100CB
     FM050100 32013G23KT P6SM FEW120
     FM050900 VRB06KT P6SM FEW120=



000
FTUS46 KSGX 041121
TAFSAN
TAF
KSAN 041121Z 0412/0518 VRB05KT P6SM OVC018
     FM041600 VRB04KT P6SM OVC025
     FM041900 29011KT P6SM SCT035
     FM050000 VRB05KT P6SM BKN020
     FM050400 VRB05KT P6SM OVC030=



000
FTUS46 KSGX 041121
TAFTRM
TAF
KTRM 041121Z 0412/0512 33011KT P6SM SCT120
     FM041500 VRB06KT P6SM SCT120
     FM042000 14009KT P6SM VCTS FEW100CB
     FM050400 33012G20KT P6SM SKC=



000
FTUS46 KSGX 041121
TAFSNA
TAF
KSNA 041121Z 0412/0512 VRB04KT P6SM OVC025
     FM041500 VRB04KT P6SM OVC030
     FM041800 23011KT P6SM SCT030
     FM050200 VRB04KT P6SM BKN020
     FM050800 VRB04KT P6SM OVC030=



000
FTUS46 KSGX 040907 AAA
TAFSAN
TAF AMD
KSAN 040907Z 0409/0512 VRB05KT P6SM OVC020
     FM041600 VRB04KT P6SM OVC030
     FM041900 30010KT P6SM SCT035
     FM050000 VRB05KT P6SM BKN030=



000
FTUS46 KSGX 040907 AAA
TAFSAN
TAF AMD
KSAN 040907Z 0409/0512 VRB05KT P6SM OVC020
     FM041600 VRB04KT P6SM OVC030
     FM041900 30010KT P6SM SCT035
     FM050000 VRB05KT P6SM BKN030=



000
FTUS46 KSGX 040520
TAFSAN
TAF
KSAN 040520Z 0406/0512 VRB05KT P6SM OVC025
     FM041600 VRB04KT P6SM OVC030
     FM041900 30010KT P6SM SCT035
     FM050000 VRB05KT P6SM BKN030=



000
FTUS46 KSGX 040520
TAFPSP
TAF
KPSP 040520Z 0406/0506 33011G20KT P6SM FEW100
     FM040700 VRB06KT P6SM SKC
     FM042200 33011G20KT P6SM VCTS FEW100CB
     FM050300 32011G20KT P6SM SKC=



000
FTUS46 KSGX 040520
TAFTRM
TAF
KTRM 040520Z 0406/0506 33008KT P6SM SKC
     FM040700 VRB06KT P6SM SKC
     FM042000 14009KT P6SM VCTS FEW100CB
     FM050300 33011KT P6SM SKC=



000
FTUS46 KSGX 040520
TAFONT
TAF
KONT 040520Z 0406/0512 26006KT P6SM FEW012
     FM040900 VRB05KT P6SM OVC015
     FM041500 VRB04KT P6SM OVC020
     FM041700 VRB04KT P6SM SCT022
     FM042000 25011G18KT P6SM FEW100
     FM050400 26006KT P6SM SCT015
     FM050700 VRB04KT P6SM BKN020=



000
FTUS46 KSGX 040520
TAFPSP
TAF
KPSP 040520Z 0406/0506 33011G20KT P6SM FEW100
     FM040700 VRB06KT P6SM SKC
     FM042200 33011G20KT P6SM VCTS FEW100CB
     FM050300 32011G20KT P6SM SKC=



000
FTUS46 KSGX 040520
TAFCRQ
TAF
KCRQ 040520Z 0406/0506 VRB04KT P6SM OVC015
     FM040900 VRB03KT P6SM OVC020
     FM041900 26009KT P6SM SCT025
     FM050000 VRB04KT P6SM BKN025=



000
FTUS46 KSGX 040520
TAFSNA
TAF
KSNA 040520Z 0406/0506 VRB04KT P6SM SCT015
     FM040700 VRB04KT P6SM OVC020
     FM041800 23011KT P6SM FEW030
     FM050100 VRB04KT P6SM SCT025=



000
FTUS46 KSGX 040520
TAFSAN
TAF
KSAN 040520Z 0406/0512 VRB05KT P6SM OVC025
     FM041600 VRB04KT P6SM OVC030
     FM041900 30010KT P6SM SCT035
     FM050000 VRB05KT P6SM BKN030=



000
FTUS46 KSGX 040520
TAFONT
TAF
KONT 040520Z 0406/0512 26006KT P6SM FEW012
     FM040900 VRB05KT P6SM OVC015
     FM041500 VRB04KT P6SM OVC020
     FM041700 VRB04KT P6SM SCT022
     FM042000 25011G18KT P6SM FEW100
     FM050400 26006KT P6SM SCT015
     FM050700 VRB04KT P6SM BKN020=



000
FTUS46 KSGX 040520
TAFCRQ
TAF
KCRQ 040520Z 0406/0506 VRB04KT P6SM OVC015
     FM040900 VRB03KT P6SM OVC020
     FM041900 26009KT P6SM SCT025
     FM050000 VRB04KT P6SM BKN025=



000
FTUS46 KSGX 040520
TAFSNA
TAF
KSNA 040520Z 0406/0506 VRB04KT P6SM SCT015
     FM040700 VRB04KT P6SM OVC020
     FM041800 23011KT P6SM FEW030
     FM050100 VRB04KT P6SM SCT025=



000
FTUS46 KSGX 040520
TAFTRM
TAF
KTRM 040520Z 0406/0506 33008KT P6SM SKC
     FM040700 VRB06KT P6SM SKC
     FM042000 14009KT P6SM VCTS FEW100CB
     FM050300 33011KT P6SM SKC=



000
FTUS46 KSGX 040254 AAA
TAFSAN
TAF AMD
KSAN 040254Z 0403/0506 VRB05KT P6SM OVC025
     FM041600 VRB04KT P6SM OVC030
     FM041900 30010KT P6SM SCT035
     FM050000 VRB05KT P6SM BKN030=



000
FTUS46 KSGX 040254 AAA
TAFSAN
TAF AMD
KSAN 040254Z 0403/0506 VRB05KT P6SM OVC025
     FM041600 VRB04KT P6SM OVC030
     FM041900 30010KT P6SM SCT035
     FM050000 VRB05KT P6SM BKN030=



000
FTUS46 KSGX 032332
TAFCRQ
TAF
KCRQ 032332Z 0400/0424 26008KT P6SM BKN018
     FM040100 VRB04KT P6SM OVC018
     FM040900 VRB03KT P6SM OVC022
     FM041900 26009KT P6SM SCT025=



000
FTUS46 KSGX 032332
TAFPSP
TAF
KPSP 032332Z 0400/0424 33011G20KT P6SM FEW100
     FM040700 VRB06KT P6SM SKC
     FM042200 33011G20KT P6SM VCTS FEW100CB=



000
FTUS46 KSGX 032332
TAFONT
TAF
KONT 032332Z 0400/0506 25011G18KT P6SM FEW080
     FM040400 26006KT P6SM SCT012
     FM040800 VRB05KT P6SM OVC015
     FM041500 VRB04KT P6SM OVC020
     FM041700 VRB04KT P6SM SCT022
     FM042000 25011G18KT P6SM FEW100
     FM050400 26006KT P6SM SCT015=



000
FTUS46 KSGX 032332
TAFSAN
TAF
KSAN 032332Z 0400/0506 30010KT P6SM FEW018 BKN028
     FM040200 VRB04KT P6SM OVC025
     FM041600 VRB04KT P6SM BKN030
     FM041900 30010KT P6SM SCT035
     FM050000 VRB05KT P6SM BKN030=



000
FTUS46 KSGX 032332
TAFSNA
TAF
KSNA 032332Z 0400/0424 24008KT P6SM FEW020
     FM040200 22006KT P6SM SCT020
     FM040400 VRB04KT P6SM OVC022
     FM041800 23011KT P6SM SCT030=



000
FTUS46 KSGX 032332
TAFTRM
TAF
KTRM 032332Z 0400/0424 14010KT P6SM FEW100
     FM040100 33010KT P6SM SKC
     FM040700 VRB06KT P6SM SKC
     FM042000 14009KT P6SM VCTS FEW100CB=



000
FTUS46 KSGX 032019 AAA
TAFSAN
TAF AMD
KSAN 032019Z 0320/0424 30009KT P6SM SCT030
     FM040000 30009KT P6SM BKN025
     FM040200 VRB04KT P6SM OVC025
     FM041600 VRB04KT P6SM BKN030
     FM041900 30010KT P6SM SCT035=



000
FTUS46 KSGX 032019 AAA
TAFSAN
TAF AMD
KSAN 032019Z 0320/0424 30009KT P6SM SCT030
     FM040000 30009KT P6SM BKN025
     FM040200 VRB04KT P6SM OVC025
     FM041600 VRB04KT P6SM BKN030
     FM041900 30010KT P6SM SCT035=



000
FTUS46 KSGX 031720
TAFCRQ
TAF
KCRQ 031720Z 0318/0418 25007KT P6SM BKN025
     FM031900 25007KT P6SM SCT028
     FM032000 25009KT P6SM SCT030
     FM040000 VRB05KT P6SM BKN022=



000
FTUS46 KSGX 031720
TAFSAN
TAF
KSAN 031720Z 0318/0424 22006KT P6SM BKN028
     FM031900 26007KT P6SM SCT030
     FM032000 28009KT P6SM SCT030
     FM040000 30009KT P6SM BKN025
     FM040200 VRB04KT P6SM OVC025
     FM041600 VRB04KT P6SM BKN030
     FM041900 30010KT P6SM SCT035=



000
FTUS46 KSGX 031720
TAFONT
TAF
KONT 031720Z 0318/0424 25007KT P6SM FEW018
     FM031900 25011G18KT P6SM FEW100
     FM040400 26006KT P6SM SCT012
     FM040800 VRB05KT P6SM OVC015
     FM041500 VRB04KT P6SM OVC020
     FM041700 VRB04KT P6SM SCT022
     FM042000 25011G18KT P6SM FEW100=



000
FTUS46 KSGX 031720
TAFPSP
TAF
KPSP 031720Z 0318/0418 14007KT P6SM FEW150
     FM040000 33011G20KT P6SM FEW100
     FM040700 VRB06KT P6SM SKC=



000
FTUS46 KSGX 031720
TAFSNA
TAF
KSNA 031720Z 0318/0418 22005KT P6SM SCT025
     FM032000 22008KT P6SM FEW028
     FM040200 22006KT P6SM SCT024
     FM040300 VRB04KT P6SM OVC025
     FM041600 VRB04KT P6SM BKN030=



000
FTUS46 KSGX 031720
TAFTRM
TAF
KTRM 031720Z 0318/0418 12006KT P6SM FEW150
     FM031900 14010KT P6SM FEW100
     FM040300 33010KT P6SM SKC
     FM040700 VRB06KT P6SM SKC=



000
FTUS46 KSGX 031720
TAFSNA
TAF
KSNA 031720Z 0318/0418 22005KT P6SM SCT025
     FM032000 22008KT P6SM FEW028
     FM040200 22006KT P6SM SCT024
     FM040300 VRB04KT P6SM OVC025
     FM041600 VRB04KT P6SM BKN030=



000
FTUS46 KSGX 031720
TAFONT
TAF
KONT 031720Z 0318/0424 25007KT P6SM FEW018
     FM031900 25011G18KT P6SM FEW100
     FM040400 26006KT P6SM SCT012
     FM040800 VRB05KT P6SM OVC015
     FM041500 VRB04KT P6SM OVC020
     FM041700 VRB04KT P6SM SCT022
     FM042000 25011G18KT P6SM FEW100=



000
FTUS46 KSGX 031720
TAFCRQ
TAF
KCRQ 031720Z 0318/0418 25007KT P6SM BKN025
     FM031900 25007KT P6SM SCT028
     FM032000 25009KT P6SM SCT030
     FM040000 VRB05KT P6SM BKN022=



000
FTUS46 KSGX 031720
TAFTRM
TAF
KTRM 031720Z 0318/0418 12006KT P6SM FEW150
     FM031900 14010KT P6SM FEW100
     FM040300 33010KT P6SM SKC
     FM040700 VRB06KT P6SM SKC=



000
FTUS46 KSGX 031720
TAFSAN
TAF
KSAN 031720Z 0318/0424 22006KT P6SM BKN028
     FM031900 26007KT P6SM SCT030
     FM032000 28009KT P6SM SCT030
     FM040000 30009KT P6SM BKN025
     FM040200 VRB04KT P6SM OVC025
     FM041600 VRB04KT P6SM BKN030
     FM041900 30010KT P6SM SCT035=



000
FTUS46 KSGX 031720
TAFPSP
TAF
KPSP 031720Z 0318/0418 14007KT P6SM FEW150
     FM040000 33011G20KT P6SM FEW100
     FM040700 VRB06KT P6SM SKC=



000
FTUS46 KSGX 031434 AAA
TAFSAN
TAF AMD
KSAN 031434Z 0315/0418 VRB03KT P6SM BKN025
     FM031800 26006KT P6SM SCT030
     FM032000 29009KT P6SM SCT028
     FM040000 29009KT P6SM BKN025
     FM040200 VRB04KT P6SM OVC025
     FM041600 VRB04KT P6SM BKN030=



000
FTUS46 KSGX 031434 AAA
TAFSAN
TAF AMD
KSAN 031434Z 0315/0418 VRB03KT P6SM BKN025
     FM031800 26006KT P6SM SCT030
     FM032000 29009KT P6SM SCT028
     FM040000 29009KT P6SM BKN025
     FM040200 VRB04KT P6SM OVC025
     FM041600 VRB04KT P6SM BKN030=



000
FTUS46 KSGX 031228 AAA
TAFONT
TAF AMD
KONT 031228Z 0312/0418 VRB03KT P6SM SCT012
     FM031300 VRB03KT P6SM BKN012
     FM031700 VRB06KT P6SM SCT015
     FM031900 25012G20KT P6SM SKC
     FM040400 26006KT P6SM SCT012
     FM040600 VRB05KT P6SM OVC015=



000
FTUS46 KSGX 031215 AAA
TAFCRQ
TAF AMD
KCRQ 031215Z 0312/0412 VRB03KT P6SM OVC020
     FM031800 26008KT P6SM SCT022
     FM040000 27007KT P6SM BKN022
     FM040200 VRB04KT P6SM OVC022=



000
FTUS46 KSGX 031121
TAFSNA
TAF
KSNA 031121Z 0312/0412 VRB04KT P6SM OVC020
     FM031800 22008KT P6SM SCT024
     FM040300 VRB04KT P6SM OVC024=



000
FTUS46 KSGX 031121
TAFCRQ
TAF
KCRQ 031121Z 0312/0412 VRB03KT P6SM OVC018
     FM031800 26008KT P6SM SCT022
     FM040000 27007KT P6SM BKN022
     FM040200 VRB04KT P6SM OVC022=



000
FTUS46 KSGX 031121
TAFONT
TAF
KONT 031121Z 0312/0418 VRB03KT P6SM SCT007
     FM031300 VRB03KT 5SM BR BKN007
     FM031700 VRB05KT 5SM HZ SCT012
     FM031900 25012G20KT P6SM SKC
     FM040400 26006KT P6SM SCT012
     FM040600 VRB05KT P6SM OVC015=



000
FTUS46 KSGX 031121
TAFTRM
TAF
KTRM 031121Z 0312/0412 VRB06KT P6SM SKC
     FM031900 14010KT P6SM FEW100
     FM040300 33010KT P6SM SKC=



000
FTUS46 KSGX 031121
TAFSAN
TAF
KSAN 031121Z 0312/0418 VRB03KT P6SM OVC021
     FM031800 27009KT P6SM SCT025
     FM040000 29009KT P6SM BKN025
     FM040300 VRB04KT P6SM OVC025=



000
FTUS46 KSGX 031121
TAFPSP
TAF
KPSP 031121Z 0312/0412 VRB06KT P6SM SKC
     FM040000 33011G20KT P6SM FEW100
     FM040600 VRB06KT P6SM SKC=



000
FTUS46 KSGX 031121
TAFSNA
TAF
KSNA 031121Z 0312/0412 VRB04KT P6SM OVC020
     FM031800 22008KT P6SM SCT024
     FM040300 VRB04KT P6SM OVC024=



000
FTUS46 KSGX 031121
TAFCRQ
TAF
KCRQ 031121Z 0312/0412 VRB03KT P6SM OVC018
     FM031800 26008KT P6SM SCT022
     FM040000 27007KT P6SM BKN022
     FM040200 VRB04KT P6SM OVC022=



000
FTUS46 KSGX 031121
TAFPSP
TAF
KPSP 031121Z 0312/0412 VRB06KT P6SM SKC
     FM040000 33011G20KT P6SM FEW100
     FM040600 VRB06KT P6SM SKC=



000
FTUS46 KSGX 031121
TAFTRM
TAF
KTRM 031121Z 0312/0412 VRB06KT P6SM SKC
     FM031900 14010KT P6SM FEW100
     FM040300 33010KT P6SM SKC=



000
FTUS46 KSGX 031121
TAFONT
TAF
KONT 031121Z 0312/0418 VRB03KT P6SM SCT007
     FM031300 VRB03KT 5SM BR BKN007
     FM031700 VRB05KT 5SM HZ SCT012
     FM031900 25012G20KT P6SM SKC
     FM040400 26006KT P6SM SCT012
     FM040600 VRB05KT P6SM OVC015=



000
FTUS46 KSGX 031121
TAFSAN
TAF
KSAN 031121Z 0312/0418 VRB03KT P6SM OVC021
     FM031800 27009KT P6SM SCT025
     FM040000 29009KT P6SM BKN025
     FM040300 VRB04KT P6SM OVC025=



000
FTUS46 KSGX 030853 AAB
TAFSAN
TAF AMD
KSAN 030853Z 0309/0412 VRB04KT P6SM BKN018
     FM031200 VRB04KT P6SM OVC020
     FM031730 VRB05KT P6SM SCT025
     FM031900 29009KT P6SM FEW025
     FM040100 VRB04KT P6SM BKN020
     FM041000 VRB03KT P6SM OVC025=



000
FTUS46 KSGX 030534 AAA
TAFCRQ
TAF AMD
KCRQ 030534Z 0306/0406 VRB04KT P6SM BKN015
     FM031200 VRB03KT P6SM OVC018
     FM031800 VRB04KT P6SM SCT017
     FM032000 26008KT P6SM FEW020
     FM040100 VRB03KT P6SM BKN017=



000
FTUS46 KSGX 030532 AAA
TAFSAN
TAF AMD
KSAN 030532Z 0306/0412 VRB04KT P6SM BKN018
      TEMPO 0306/0308 SCT020
     FM031200 VRB04KT P6SM OVC020
     FM031730 VRB05KT P6SM SCT025
     FM031900 29009KT P6SM FEW025
     FM040100 VRB04KT P6SM BKN020
     FM041000 VRB03KT P6SM OVC025=



000
FTUS46 KSGX 030530 AAA
TAFSNA
TAF AMD
KSNA 030530Z 0306/0406 VRB04KT P6SM OVC015
     FM031700 VRB04KT P6SM SCT022
     FM031800 22008KT P6SM FEW025
     FM040100 VRB03KT P6SM FEW020=



000
FTUS46 KSGX 030530 AAA
TAFSNA
TAF AMD
KSNA 030530Z 0306/0406 VRB04KT P6SM OVC015
     FM031700 VRB04KT P6SM SCT022
     FM031800 22008KT P6SM FEW025
     FM040100 VRB03KT P6SM FEW020=



000
FTUS46 KSGX 030520
TAFCRQ
TAF
KCRQ 030520Z 0306/0406 VRB04KT P6SM BKN010
     FM031200 VRB03KT P6SM OVC015
     FM031800 VRB04KT P6SM SCT017
     FM032000 26008KT P6SM FEW020
     FM040100 VRB03KT P6SM BKN017=



000
FTUS46 KSGX 030520
TAFTRM
TAF
KTRM 030520Z 0306/0406 34011KT P6SM SKC
     FM031300 VRB06KT P6SM SKC
     FM031900 15011KT P6SM FEW100
     FM040300 33009KT P6SM SKC=



000
FTUS46 KSGX 030520
TAFPSP
TAF
KPSP 030520Z 0306/0406 32011G20KT P6SM FEW100
     FM030700 VRB06KT P6SM SKC
     FM032100 11009KT P6SM FEW100
     FM040000 33011G20KT P6SM SKC=



000
FTUS46 KSGX 030520
TAFSAN
TAF
KSAN 030520Z 0306/0412 VRB04KT P6SM BKN012
     FM031200 VRB04KT P6SM OVC018
     FM031730 VRB05KT P6SM SCT025
     FM031900 29009KT P6SM FEW025
     FM040100 VRB04KT P6SM BKN020
     FM041000 VRB03KT P6SM OVC025=



000
FTUS46 KSGX 030520
TAFSNA
TAF
KSNA 030520Z 0306/0406 22005KT P6SM SCT020
     FM030900 VRB04KT P6SM OVC015
     FM031700 VRB04KT P6SM SCT022
     FM031800 22008KT P6SM FEW025
     FM040100 VRB03KT P6SM FEW020=



000
FTUS46 KSGX 030520
TAFONT
TAF
KONT 030520Z 0306/0412 VRB04KT P6SM SKC
     FM031100 VRB03KT 4SM BR BKN007
     FM031500 VRB03KT 5SM BR BKN011
     FM031700 VRB05KT 5SM HZ SCT015
     FM032000 25010G18KT P6SM SKC
     FM040400 VRB04KT P6SM FEW010
     FM040700 VRB03KT P6SM BKN012=



000
FTUS46 KSGX 030252 AAA
TAFCRQ
TAF AMD
KCRQ 030252Z 0303/0324 21005KT P6SM SCT015
     FM030430 VRB04KT P6SM BKN010
     FM031200 VRB03KT P6SM OVC015
     FM031800 VRB04KT P6SM SCT017
     FM032000 26008KT P6SM FEW020=



000
FTUS46 KSGX 030252 AAA
TAFSAN
TAF AMD
KSAN 030252Z 0303/0406 17006KT P6SM SCT020
     FM030400 VRB04KT P6SM OVC012
     FM031200 VRB04KT P6SM OVC018
     FM031730 VRB05KT P6SM SCT025
     FM031900 29009KT P6SM FEW025
     FM040100 VRB04KT P6SM BKN020=



000
FTUS46 KSGX 030006 CCA
TAFCRQ
TAF COR
KCRQ 030006Z 0300/0324 22005KT P6SM BKN010
      TEMPO 0300/0302 22010KT SCT015
     FM031200 VRB03KT P6SM OVC015
     FM031800 VRB04KT P6SM SCT017
     FM032000 26008KT P6SM FEW020=



000
FTUS46 KSGX 030006 CCA
TAFCRQ
TAF COR
KCRQ 030006Z 0300/0324 22005KT P6SM BKN010
      TEMPO 0300/0302 22010KT SCT015
     FM031200 VRB03KT P6SM OVC015
     FM031800 VRB04KT P6SM SCT017
     FM032000 26008KT P6SM FEW020=



000
FTUS46 KSGX 030004 CCA
TAFPSP
TAF COR
KPSP 030004Z 0300/0324 33011G20KT P6SM FEW100
     FM030700 VRB06KT P6SM SKC
     FM032100 11009KT P6SM SKC=



000
FTUS46 KSGX 030004 CCA
TAFPSP
TAF COR
KPSP 030004Z 0300/0324 33011G20KT P6SM FEW100
     FM030700 VRB06KT P6SM SKC
     FM032100 11009KT P6SM SKC=



000
FTUS46 KSGX 022346
TAFPSP
TAF
KPSP 022346Z 0300/0324 13008KT P6SM FEW100
     FM030100 33011G18KT P6SM FEW100
     FM030700 VRB06KT P6SM SKC
     FM032100 11009KT P6SM SKC=



000
FTUS46 KSGX 022346
TAFCRQ
TAF
KCRQ 022346Z 0300/0324 22009KT P6SM FEW015
     FM030100 21004KT P6SM SCT013
     FM030200 VRB03KT P6SM OVC010
     FM031200 VRB03KT P6SM OVC015
     FM031800 VRB04KT P6SM SCT017
     FM032000 26008KT P6SM FEW020=



000
FTUS46 KSGX 022346
TAFSNA
TAF
KSNA 022346Z 0300/0324 23009KT P6SM SKC
     FM030300 22005KT P6SM SCT017
     FM030600 VRB04KT P6SM OVC015
     FM031700 VRB04KT P6SM SCT022
     FM031800 22008KT P6SM FEW025=



000
FTUS46 KSGX 022346
TAFTRM
TAF
KTRM 022346Z 0300/0324 14011KT P6SM FEW100
     FM030400 33011KT P6SM SKC
     FM031300 VRB06KT P6SM SKC
     FM031900 15011KT P6SM FEW100=



000
FTUS46 KSGX 022346
TAFONT
TAF
KONT 022346Z 0300/0406 26011G19KT P6SM FEW150
     FM030400 VRB04KT P6SM SKC
     FM031100 VRB03KT 4SM BR BKN007
     FM031500 VRB03KT 5SM BR BKN011
     FM031700 VRB05KT 5SM HZ SCT015
     FM032000 25010G18KT P6SM SKC
     FM040400 VRB04KT P6SM FEW010=



000
FTUS46 KSGX 022346
TAFSAN
TAF
KSAN 022346Z 0300/0406 23009KT P6SM SCT017
     FM030200 20005KT P6SM SCT015
     FM030300 VRB04KT P6SM OVC012
     FM031200 VRB04KT P6SM OVC018
     FM031730 VRB05KT P6SM SCT025
     FM031900 29009KT P6SM FEW025
     FM040100 VRB04KT P6SM BKN020=



000
FTUS46 KSGX 022346
TAFPSP
TAF
KPSP 022346Z 0300/0324 13008KT P6SM FEW100
     FM030100 33011G18KT P6SM FEW100
     FM030700 VRB06KT P6SM SKC
     FM032100 11009KT P6SM SKC=



000
FTUS46 KSGX 022346
TAFTRM
TAF
KTRM 022346Z 0300/0324 14011KT P6SM FEW100
     FM030400 33011KT P6SM SKC
     FM031300 VRB06KT P6SM SKC
     FM031900 15011KT P6SM FEW100=



000
FTUS46 KSGX 022346
TAFSNA
TAF
KSNA 022346Z 0300/0324 23009KT P6SM SKC
     FM030300 22005KT P6SM SCT017
     FM030600 VRB04KT P6SM OVC015
     FM031700 VRB04KT P6SM SCT022
     FM031800 22008KT P6SM FEW025=



000
FTUS46 KSGX 022346
TAFCRQ
TAF
KCRQ 022346Z 0300/0324 22009KT P6SM FEW015
     FM030100 21004KT P6SM SCT013
     FM030200 VRB03KT P6SM OVC010
     FM031200 VRB03KT P6SM OVC015
     FM031800 VRB04KT P6SM SCT017
     FM032000 26008KT P6SM FEW020=



000
FTUS46 KSGX 022346
TAFONT
TAF
KONT 022346Z 0300/0406 26011G19KT P6SM FEW150
     FM030400 VRB04KT P6SM SKC
     FM031100 VRB03KT 4SM BR BKN007
     FM031500 VRB03KT 5SM BR BKN011
     FM031700 VRB05KT 5SM HZ SCT015
     FM032000 25010G18KT P6SM SKC
     FM040400 VRB04KT P6SM FEW010=



000
FTUS46 KSGX 022346
TAFSAN
TAF
KSAN 022346Z 0300/0406 23009KT P6SM SCT017
     FM030200 20005KT P6SM SCT015
     FM030300 VRB04KT P6SM OVC012
     FM031200 VRB04KT P6SM OVC018
     FM031730 VRB05KT P6SM SCT025
     FM031900 29009KT P6SM FEW025
     FM040100 VRB04KT P6SM BKN020=



000
FTUS46 KSGX 022343
TAFPSP
TAF
KPSP 022343Z 0300/0324 13008KT P6SM FEW100
     FM030100 33011G18KT P6SM FEW100
     FM030700 VRB06KT P6SM SKC
     FM032100 11009KT P6SM SKC=



000
FTUS46 KSGX 022343
TAFCRQ
TAF
KCRQ 022343Z 0300/0324 22009KT P6SM FEW015
     FM030100 21004KT P6SM SCT013
     FM030200 VRB03KT P6SM OVC010
     FM031200 VRB03KT P6SM OVC015
     FM031800 VRB04KT P6SM SCT017
     FM032000 26008KT P6SM FEW020=



000
FTUS46 KSGX 022343
TAFONT
TAF
KONT 022343Z 0300/0406 26011G19KT P6SM FEW150
     FM030400 VRB04KT P6SM SKC
     FM031100 VRB03KT 4SM BR BKN007
     FM031500 VRB03KT 5SM BR BKN011
     FM031700 VRB05KT 5SM HZ SCT015
     FM032000 25010G18KT P6SM SKC
     FM040400 VRB04KT P6SM FEW010=



000
FTUS46 KSGX 022343
TAFTRM
TAF
KTRM 022343Z 0300/0324 14011KT P6SM FEW100
     FM030400 33011KT P6SM SKC
     FM031300 VRB06KT P6SM SKC
     FM031900 15011KT P6SM FEW100=



000
FTUS46 KSGX 022343
TAFSAN
TAF
KSAN 022343Z 0300/0406 23009KT P6SM SCT017
     FM030200 20005KT P6SM SCT015
     FM030300 VRB04KT P6SM OVC012
     FM031200 VRB04KT P6SM OVC018
     FM031730 VRB05KT P6SM SCT025
     FM031900 29009KT P6SM FEW025
     FM040100 VRB04KT P6SM BKN020=



000
FTUS46 KSGX 022343
TAFSNA
TAF
KSNA 022343Z 0300/0324 23009KT P6SM SKC
     FM030300 22005KT P6SM SCT017
     FM030600 VRB04KT P6SM OVC015
     FM031700 VRB04KT P6SM SCT022
     FM031800 22008KT P6SM FEW025=



000
FTUS46 KSGX 022343
TAFSNA
TAF
KSNA 022343Z 0300/0324 23009KT P6SM SKC
     FM030300 22005KT P6SM SCT017
     FM030600 VRB04KT P6SM OVC015
     FM031700 VRB04KT P6SM SCT022
     FM031800 22008KT P6SM FEW025=



000
FTUS46 KSGX 022343
TAFCRQ
TAF
KCRQ 022343Z 0300/0324 22009KT P6SM FEW015
     FM030100 21004KT P6SM SCT013
     FM030200 VRB03KT P6SM OVC010
     FM031200 VRB03KT P6SM OVC015
     FM031800 VRB04KT P6SM SCT017
     FM032000 26008KT P6SM FEW020=



000
FTUS46 KSGX 022343
TAFPSP
TAF
KPSP 022343Z 0300/0324 13008KT P6SM FEW100
     FM030100 33011G18KT P6SM FEW100
     FM030700 VRB06KT P6SM SKC
     FM032100 11009KT P6SM SKC=



000
FTUS46 KSGX 022343
TAFTRM
TAF
KTRM 022343Z 0300/0324 14011KT P6SM FEW100
     FM030400 33011KT P6SM SKC
     FM031300 VRB06KT P6SM SKC
     FM031900 15011KT P6SM FEW100=



000
FTUS46 KSGX 022343
TAFONT
TAF
KONT 022343Z 0300/0406 26011G19KT P6SM FEW150
     FM030400 VRB04KT P6SM SKC
     FM031100 VRB03KT 4SM BR BKN007
     FM031500 VRB03KT 5SM BR BKN011
     FM031700 VRB05KT 5SM HZ SCT015
     FM032000 25010G18KT P6SM SKC
     FM040400 VRB04KT P6SM FEW010=



000
FTUS46 KSGX 022343
TAFSAN
TAF
KSAN 022343Z 0300/0406 23009KT P6SM SCT017
     FM030200 20005KT P6SM SCT015
     FM030300 VRB04KT P6SM OVC012
     FM031200 VRB04KT P6SM OVC018
     FM031730 VRB05KT P6SM SCT025
     FM031900 29009KT P6SM FEW025
     FM040100 VRB04KT P6SM BKN020=



000
FTUS46 KSGX 022320
TAFONT
TAF
KONT 022320Z 0300/0406 26011G19KT P6SM FEW150
     FM030400 VRB04KT P6SM SKC
     FM031100 VRB03KT 4SM BR BKN007
     FM031500 VRB03KT 5SM BR BKN011
     FM031700 VRB05KT 5SM HZ SCT015
     FM032000 25010G18KT P6SM SKC
     FM040400 VRB04KT P6SM FEW010=



000
FTUS46 KSGX 022320
TAFSNA
TAF
KSNA 022320Z 0300/0324 23009KT P6SM SKC
     FM030300 22005KT P6SM SCT017
     FM030600 VRB04KT P6SM OVC015
     FM031700 VRB04KT P6SM SCT022
     FM031800 22008KT P6SM FEW025=



000
FTUS46 KSGX 022320
TAFCRQ
TAF
KCRQ 022320Z 0300/0324 22009KT P6SM FEW015
     FM030100 21004KT P6SM SCT013
     FM030200 VRB03KT P6SM OVC010
     FM031200 VRB03KT P6SM OVC015
     FM031800 VRB04KT P6SM SCT017
     FM032000 26008KT P6SM FEW020=



000
FTUS46 KSGX 022320
TAFSAN
TAF
KSAN 022320Z 0300/0406 23009KT P6SM SCT017
     FM030200 20005KT P6SM SCT015
     FM030300 VRB04KT P6SM OVC012
     FM031200 VRB04KT P6SM OVC018
     FM031730 VRB05KT P6SM SCT025
     FM031900 29009KT P6SM FEW025
     FM040100 VRB04KT P6SM BKN020=



000
FTUS46 KSGX 022320
TAFTRM
TAF
KTRM 022320Z 0300/0324 14011KT P6SM FEW100
     FM030400 33011KT P6SM SKC
     FM031300 VRB06KT P6SM SKC
     FM031900 15011KT P6SM FEW100=



000
FTUS46 KSGX 022320
TAFONT
TAF
KONT 022320Z 0300/0406 26011G19KT P6SM FEW150
     FM030400 VRB04KT P6SM SKC
     FM031100 VRB03KT 4SM BR BKN007
     FM031500 VRB03KT 5SM BR BKN011
     FM031700 VRB05KT 5SM HZ SCT015
     FM032000 25010G18KT P6SM SKC
     FM040400 VRB04KT P6SM FEW010=



000
FTUS46 KSGX 022320
TAFCRQ
TAF
KCRQ 022320Z 0300/0324 22009KT P6SM FEW015
     FM030100 21004KT P6SM SCT013
     FM030200 VRB03KT P6SM OVC010
     FM031200 VRB03KT P6SM OVC015
     FM031800 VRB04KT P6SM SCT017
     FM032000 26008KT P6SM FEW020=



000
FTUS46 KSGX 022320
TAFSAN
TAF
KSAN 022320Z 0300/0406 23009KT P6SM SCT017
     FM030200 20005KT P6SM SCT015
     FM030300 VRB04KT P6SM OVC012
     FM031200 VRB04KT P6SM OVC018
     FM031730 VRB05KT P6SM SCT025
     FM031900 29009KT P6SM FEW025
     FM040100 VRB04KT P6SM BKN020=



000
FTUS46 KSGX 022320
TAFSNA
TAF
KSNA 022320Z 0300/0324 23009KT P6SM SKC
     FM030300 22005KT P6SM SCT017
     FM030600 VRB04KT P6SM OVC015
     FM031700 VRB04KT P6SM SCT022
     FM031800 22008KT P6SM FEW025=



000
FTUS46 KSGX 022320
TAFPSP
TAF
KPSP 022320Z 0300/0324 13008KT P6SM FEW100
     FM030100 33011G18KT P6SM FEW100
     FM030700 VRB06KT P6SM SKC
     FM032100 11009KT P6SM SKC=



000
FTUS46 KSGX 022320
TAFTRM
TAF
KTRM 022320Z 0300/0324 14011KT P6SM FEW100
     FM030400 33011KT P6SM SKC
     FM031300 VRB06KT P6SM SKC
     FM031900 15011KT P6SM FEW100=



000
FTUS46 KSGX 022320
TAFPSP
TAF
KPSP 022320Z 0300/0324 13008KT P6SM FEW100
     FM030100 33011G18KT P6SM FEW100
     FM030700 VRB06KT P6SM SKC
     FM032100 11009KT P6SM SKC=



000
FTUS46 KSGX 022011 AAA
TAFSAN
TAF AMD
KSAN 022011Z 0220/0324 22009KT P6SM SCT015
     FM030200 20005KT P6SM SCT015
     FM030400 VRB04KT P6SM OVC015
     FM031600 VRB04KT P6SM BKN020
     FM031800 VRB05KT P6SM SCT022
     FM031900 29009KT P6SM FEW025=



000
FTUS46 KSGX 021720
TAFPSP
TAF
KPSP 021720Z 0218/0318 12006KT P6SM FEW100
     FM022100 33011G18KT P6SM FEW100
     FM030700 VRB06KT P6SM FEW100=



000
FTUS46 KSGX 021720
TAFSAN
TAF
KSAN 021720Z 0218/0324 19006KT P6SM SCT012
     FM021900 22008KT P6SM FEW015
     FM030200 20005KT P6SM SCT015
     FM030400 VRB04KT P6SM OVC015
     FM031600 VRB04KT P6SM BKN020
     FM031800 VRB05KT P6SM SCT022
     FM031900 29009KT P6SM FEW025=



000
FTUS46 KSGX 021720
TAFONT
TAF
KONT 021720Z 0218/0324 25007KT P6SM SKC
     FM021900 25011G19KT P6SM SKC
     FM030400 VRB04KT P6SM SKC
     FM031100 VRB03KT 5SM BR BKN008
     FM031500 VRB03KT 5SM BR BKN012
     FM031700 VRB05KT 5SM HZ SCT015
     FM032000 25010G18KT P6SM SKC=



000
FTUS46 KSGX 021720
TAFCRQ
TAF
KCRQ 021720Z 0218/0318 21007KT P6SM FEW014
     FM022000 24008KT P6SM FEW015
     FM030100 21004KT P6SM SCT014
     FM030300 VRB03KT P6SM OVC012=



000
FTUS46 KSGX 021720
TAFSAN
TAF
KSAN 021720Z 0218/0324 19006KT P6SM SCT012
     FM021900 22008KT P6SM FEW015
     FM030200 20005KT P6SM SCT015
     FM030400 VRB04KT P6SM OVC015
     FM031600 VRB04KT P6SM BKN020
     FM031800 VRB05KT P6SM SCT022
     FM031900 29009KT P6SM FEW025=



000
FTUS46 KSGX 021720
TAFSNA
TAF
KSNA 021720Z 0218/0318 23009KT P6SM SKC
     FM030300 22005KT P6SM SCT017
     FM030600 VRB04KT P6SM OVC015
     FM031700 VRB04KT P6SM SCT022=



000
FTUS46 KSGX 021720
TAFTRM
TAF
KTRM 021720Z 0218/0318 14007KT P6SM FEW100
     FM021900 15010KT P6SM FEW100
     FM030200 33011KT P6SM FEW100
     FM031300 VRB06KT P6SM FEW100
     FM031500 15007KT P6SM FEW100=



000
FTUS46 KSGX 021720
TAFTRM
TAF
KTRM 021720Z 0218/0318 14007KT P6SM FEW100
     FM021900 15010KT P6SM FEW100
     FM030200 33011KT P6SM FEW100
     FM031300 VRB06KT P6SM FEW100
     FM031500 15007KT P6SM FEW100=



000
FTUS46 KSGX 021720
TAFONT
TAF
KONT 021720Z 0218/0324 25007KT P6SM SKC
     FM021900 25011G19KT P6SM SKC
     FM030400 VRB04KT P6SM SKC
     FM031100 VRB03KT 5SM BR BKN008
     FM031500 VRB03KT 5SM BR BKN012
     FM031700 VRB05KT 5SM HZ SCT015
     FM032000 25010G18KT P6SM SKC=



000
FTUS46 KSGX 021720
TAFPSP
TAF
KPSP 021720Z 0218/0318 12006KT P6SM FEW100
     FM022100 33011G18KT P6SM FEW100
     FM030700 VRB06KT P6SM FEW100=



000
FTUS46 KSGX 021720
TAFSNA
TAF
KSNA 021720Z 0218/0318 23009KT P6SM SKC
     FM030300 22005KT P6SM SCT017
     FM030600 VRB04KT P6SM OVC015
     FM031700 VRB04KT P6SM SCT022=



000
FTUS46 KSGX 021720
TAFCRQ
TAF
KCRQ 021720Z 0218/0318 21007KT P6SM FEW014
     FM022000 24008KT P6SM FEW015
     FM030100 21004KT P6SM SCT014
     FM030300 VRB03KT P6SM OVC012=



000
FTUS46 KSGX 021607 AAC
TAFSAN
TAF AMD
KSAN 021607Z 0216/0318 20006KT P6SM BKN009
     FM021800 20006KT P6SM SCT012
     FM021900 26009KT P6SM SKC
     FM030200 VRB04KT P6SM SCT015
     FM030500 VRB04KT P6SM OVC012
     FM031600 VRB05KT P6SM SCT014=



000
FTUS46 KSGX 021426 AAB
TAFSAN
TAF AMD
KSAN 021426Z 0214/0318 22006KT P6SM OVC009
     FM021900 27009KT P6SM SKC
     FM030200 VRB04KT P6SM SCT015
     FM030500 VRB04KT P6SM OVC012
     FM031600 VRB05KT P6SM SCT014=



000
FTUS46 KSGX 021243 AAA
TAFSAN
TAF AMD
KSAN 021243Z 0213/0318 VRB04KT P6SM VCFG SCT010
      TEMPO 0213/0216 5SM BR BKN007
     FM021900 29010KT P6SM SKC
     FM030200 VRB04KT P6SM SCT015
     FM030600 VRB04KT P6SM OVC012
     FM031600 VRB05KT P6SM SCT014=



000
FTUS46 KSGX 021243 AAA
TAFSAN
TAF AMD
KSAN 021243Z 0213/0318 VRB04KT P6SM VCFG SCT010
      TEMPO 0213/0216 5SM BR BKN007
     FM021900 29010KT P6SM SKC
     FM030200 VRB04KT P6SM SCT015
     FM030600 VRB04KT P6SM OVC012
     FM031600 VRB05KT P6SM SCT014=



000
FTUS46 KSGX 021130 CCA
TAFCRQ
TAF COR
KCRQ 021130Z 0212/0312 VRB04KT P6SM VCFG FEW005
      TEMPO 0212/0216 3SM BR BKN004
     FM021900 26009KT P6SM SKC
     FM030100 VRB04KT P6SM SCT010
     FM030500 VRB03KT 4SM BR OVC009=



000
FTUS46 KSGX 021130 CCA
TAFCRQ
TAF COR
KCRQ 021130Z 0212/0312 VRB04KT P6SM VCFG FEW005
      TEMPO 0212/0216 3SM BR BKN004
     FM021900 26009KT P6SM SKC
     FM030100 VRB04KT P6SM SCT010
     FM030500 VRB03KT 4SM BR OVC009=



000
FTUS46 KSGX 021120
TAFSAN
TAF
KSAN 021120Z 0212/0318 VRB04KT P6SM VCFG SCT010
      TEMPO 0212/0216 5SM BR BKN009
     FM021900 29010KT P6SM SKC
     FM030200 VRB04KT P6SM SCT015
     FM030600 VRB04KT P6SM OVC012
     FM031600 VRB05KT P6SM SCT014=



000
FTUS46 KSGX 021120
TAFPSP
TAF
KPSP 021120Z 0212/0312 VRB06KT P6SM FEW200
     FM022200 33010G18KT P6SM SKC
     FM030700 VRB06KT P6SM SKC=



000
FTUS46 KSGX 021120
TAFCRQ
TAF
KCRQ 021120Z 0212/0312 VRB04KT P6SM VCFG FEW005
      TEMPO 0213/0216 3SM BR BKN004
     FM021900 26009KT P6SM SKC
     FM030100 VRB04KT P6SM SCT010
     FM030500 VRB03KT 4SM BR OVC009=



000
FTUS46 KSGX 021120
TAFTRM
TAF
KTRM 021120Z 0212/0312 VRB06KT P6SM FEW200
     FM021900 15009KT P6SM SKC
     FM030200 33010KT P6SM SKC=



000
FTUS46 KSGX 021120
TAFONT
TAF
KONT 021120Z 0212/0318 VRB04KT P6SM FEW200
     FM022100 25010KT P6SM SKC
     FM030400 VRB04KT P6SM SKC
     FM031300 VRB03KT 3SM BR SCT004
     FM031700 VRB05KT P6SM SKC=



000
FTUS46 KSGX 021120
TAFSNA
TAF
KSNA 021120Z 0212/0312 VRB04KT P6SM FEW200
     FM021900 23009KT P6SM SKC
     FM030200 VRB04KT P6SM SCT013
     FM030800 VRB04KT P6SM OVC011=



000
FTUS46 KSGX 020905 AAA
TAFSAN
TAF AMD
KSAN 020905Z 0209/0312 VRB04KT P6SM VCFG SCT006 SCT200
      TEMPO 0212/0216 4SM BR BKN005
     FM021900 29011KT P6SM SKC
     FM030300 VRB04KT P6SM SCT010
     FM030600 VRB04KT P6SM OVC009=



000
FTUS46 KSGX 020520
TAFONT
TAF
KONT 020520Z 0206/0312 VRB04KT P6SM SCT200
     FM022000 26012G18KT P6SM SKC
     FM030400 VRB04KT P6SM SKC=



000
FTUS46 KSGX 020520
TAFPSP
TAF
KPSP 020520Z 0206/0306 VRB06KT P6SM SCT200
     FM021900 11007KT P6SM SKC
     FM030000 33010G18KT P6SM SKC=



000
FTUS46 KSGX 020520
TAFSAN
TAF
KSAN 020520Z 0206/0312 VRB05KT P6SM SCT200
     FM020900 VRB04KT P6SM VCFG SCT006 SCT200
      TEMPO 0212/0216 4SM BR BKN005
     FM021900 29011KT P6SM SKC
     FM030300 VRB04KT P6SM SCT010
     FM030600 VRB04KT P6SM OVC009=



000
FTUS46 KSGX 020520
TAFCRQ
TAF
KCRQ 020520Z 0206/0306 VRB04KT P6SM SCT200
     FM020900 VRB04KT P6SM VCFG SCT003
      TEMPO 0212/0216 1SM BR BKN002
     FM021900 26009KT P6SM SKC
     FM030200 VRB04KT P6SM SCT007
      TEMPO 0303/0306 BKN006=



000
FTUS46 KSGX 020520
TAFTRM
TAF
KTRM 020520Z 0206/0306 32006KT P6SM SCT200
     FM021800 15010KT P6SM SKC
     FM030300 33009KT P6SM SKC=



000
FTUS46 KSGX 020520
TAFONT
TAF
KONT 020520Z 0206/0312 VRB04KT P6SM SCT200
     FM022000 26012G18KT P6SM SKC
     FM030400 VRB04KT P6SM SKC=



000
FTUS46 KSGX 020520
TAFPSP
TAF
KPSP 020520Z 0206/0306 VRB06KT P6SM SCT200
     FM021900 11007KT P6SM SKC
     FM030000 33010G18KT P6SM SKC=



000
FTUS46 KSGX 020520
TAFSNA
TAF
KSNA 020520Z 0206/0306 VRB04KT P6SM SCT200
     FM021900 23009KT P6SM SKC
     FM030300 VRB04KT P6SM SCT008=



000
FTUS46 KSGX 020520
TAFTRM
TAF
KTRM 020520Z 0206/0306 32006KT P6SM SCT200
     FM021800 15010KT P6SM SKC
     FM030300 33009KT P6SM SKC=



000
FTUS46 KSGX 020520
TAFCRQ
TAF
KCRQ 020520Z 0206/0306 VRB04KT P6SM SCT200
     FM020900 VRB04KT P6SM VCFG SCT003
      TEMPO 0212/0216 1SM BR BKN002
     FM021900 26009KT P6SM SKC
     FM030200 VRB04KT P6SM SCT007
      TEMPO 0303/0306 BKN006=



000
FTUS46 KSGX 020520
TAFSAN
TAF
KSAN 020520Z 0206/0312 VRB05KT P6SM SCT200
     FM020900 VRB04KT P6SM VCFG SCT006 SCT200
      TEMPO 0212/0216 4SM BR BKN005
     FM021900 29011KT P6SM SKC
     FM030300 VRB04KT P6SM SCT010
     FM030600 VRB04KT P6SM OVC009=



000
FTUS46 KSGX 020520
TAFSNA
TAF
KSNA 020520Z 0206/0306 VRB04KT P6SM SCT200
     FM021900 23009KT P6SM SKC
     FM030300 VRB04KT P6SM SCT008=



000
FTUS46 KSGX 020342 AAA
TAFSAN
TAF AMD
KSAN 020342Z 0204/0306 VRB05KT P6SM SCT200
     FM020900 VRB04KT P6SM VCFG SCT006 SCT200
      TEMPO 0212/0216 4SM BR BKN005
     FM021900 29011KT P6SM SKC
     FM030300 VRB04KT P6SM BKN009=



000
FTUS46 KSGX 012325
TAFPSP
TAF
KPSP 012325Z 0200/0224 32012G20KT P6SM SCT100 SCT150
     FM020600 VRB05KT P6SM SCT200
     FM021900 11007KT P6SM SKC=



000
FTUS46 KSGX 012325
TAFTRM
TAF
KTRM 012325Z 0200/0224 13008KT P6SM SCT100 SCT150
     FM020300 33010KT P6SM SCT200
     FM020800 VRB05KT P6SM SKC
     FM021900 15010KT P6SM SKC=



000
FTUS46 KSGX 012325
TAFPSP
TAF
KPSP 012325Z 0200/0224 32012G20KT P6SM SCT100 SCT150
     FM020600 VRB05KT P6SM SCT200
     FM021900 11007KT P6SM SKC=



000
FTUS46 KSGX 012325
TAFSAN
TAF
KSAN 012325Z 0200/0306 30009KT P6SM SCT200
     FM020230 VRB04KT P6SM SCT006 SCT200
     FM020900 VRB04KT P6SM VCFG SCT006
      TEMPO 0212/0216 4SM BR BKN005
     FM021900 29011KT P6SM SKC
     FM030300 VRB04KT P6SM BKN009=



000
FTUS46 KSGX 012325
TAFONT
TAF
KONT 012325Z 0200/0306 26011G18KT P6SM SCT200
     FM020400 VRB04KT P6SM SCT200
     FM022000 26012G18KT P6SM SKC
     FM030400 VRB04KT P6SM SKC=



000
FTUS46 KSGX 012325
TAFCRQ
TAF
KCRQ 012325Z 0200/0224 27008KT P6SM SCT200
     FM020200 VRB04KT P6SM SCT006 SCT200
     FM020900 VRB04KT P6SM VCFG SCT003
      TEMPO 0212/0216 1SM BR BKN002
     FM021900 26009KT P6SM SKC=



000
FTUS46 KSGX 012325
TAFSNA
TAF
KSNA 012325Z 0200/0224 22008KT P6SM SCT200
     FM020230 VRB04KT P6SM SKC
      TEMPO 0212/0216 4SM BR SCT005
     FM021900 23009KT P6SM SKC=



000
FTUS46 KSGX 012325
TAFONT
TAF
KONT 012325Z 0200/0306 26011G18KT P6SM SCT200
     FM020400 VRB04KT P6SM SCT200
     FM022000 26012G18KT P6SM SKC
     FM030400 VRB04KT P6SM SKC=



000
FTUS46 KSGX 012325
TAFTRM
TAF
KTRM 012325Z 0200/0224 13008KT P6SM SCT100 SCT150
     FM020300 33010KT P6SM SCT200
     FM020800 VRB05KT P6SM SKC
     FM021900 15010KT P6SM SKC=



000
FTUS46 KSGX 012325
TAFCRQ
TAF
KCRQ 012325Z 0200/0224 27008KT P6SM SCT200
     FM020200 VRB04KT P6SM SCT006 SCT200
     FM020900 VRB04KT P6SM VCFG SCT003
      TEMPO 0212/0216 1SM BR BKN002
     FM021900 26009KT P6SM SKC=



000
FTUS46 KSGX 012325
TAFSNA
TAF
KSNA 012325Z 0200/0224 22008KT P6SM SCT200
     FM020230 VRB04KT P6SM SKC
      TEMPO 0212/0216 4SM BR SCT005
     FM021900 23009KT P6SM SKC=



000
FTUS46 KSGX 012325
TAFSAN
TAF
KSAN 012325Z 0200/0306 30009KT P6SM SCT200
     FM020230 VRB04KT P6SM SCT006 SCT200
     FM020900 VRB04KT P6SM VCFG SCT006
      TEMPO 0212/0216 4SM BR BKN005
     FM021900 29011KT P6SM SKC
     FM030300 VRB04KT P6SM BKN009=



    US Dept of Commerce
    National Oceanic and Atmospheric Administration
    National Weather Service
    1325 East West Highway
    Silver Spring, MD 20910
    Page Author: NWS Internet Services Team
Disclaimer
Information Quality
Credits
Glossary
Privacy Policy
Freedom of Information Act (FOIA)
About Us
Career Opportunities